createdAt,value
2023-07-26T00:00:03.191Z,987.21
2023-07-26T00:01:03.209Z,987.29
2023-07-26T00:02:03.186Z,987.24
2023-07-26T00:03:03.340Z,987.25
2023-07-26T00:04:03.233Z,987.28
2023-07-26T00:05:03.161Z,987.25
2023-07-26T00:06:03.176Z,987.30
2023-07-26T00:07:03.145Z,987.30
2023-07-26T00:08:03.165Z,987.34
2023-07-26T00:09:03.121Z,987.35
2023-07-26T00:10:03.117Z,987.36
2023-07-26T00:11:03.125Z,987.33
2023-07-26T00:12:03.101Z,987.35
2023-07-26T00:13:03.124Z,987.31
2023-07-26T00:14:03.082Z,987.34
2023-07-26T00:15:03.082Z,987.37
2023-07-26T00:16:03.149Z,987.39
2023-07-26T00:17:03.060Z,987.45
2023-07-26T00:18:03.108Z,987.36
2023-07-26T00:19:03.041Z,987.40
2023-07-26T00:20:03.037Z,987.38
2023-07-26T00:21:03.029Z,987.36
2023-07-26T00:22:03.040Z,987.37
2023-07-26T00:23:03.035Z,987.37
2023-07-26T00:24:03.013Z,987.44
2023-07-26T00:25:03.046Z,987.44
2023-07-26T00:26:02.985Z,987.37
2023-07-26T00:27:03.002Z,987.37
2023-07-26T00:28:02.968Z,987.42
2023-07-26T00:29:02.966Z,987.39
2023-07-26T00:30:02.954Z,987.46
2023-07-26T00:31:02.974Z,987.42
2023-07-26T00:32:02.954Z,987.44
2023-07-26T00:33:02.955Z,987.42
2023-07-26T00:34:02.926Z,987.45
2023-07-26T00:35:02.911Z,987.52
2023-07-26T00:36:02.912Z,987.45
2023-07-26T00:37:02.925Z,987.53
2023-07-26T00:38:02.885Z,987.52
2023-07-26T00:39:02.882Z,987.56
2023-07-26T00:40:02.892Z,987.47
2023-07-26T00:41:02.874Z,987.50
2023-07-26T00:42:02.897Z,987.50
2023-07-26T00:43:02.849Z,987.52
2023-07-26T00:44:02.858Z,987.50
2023-07-26T00:45:02.832Z,987.48
2023-07-26T00:46:02.831Z,987.52
2023-07-26T00:47:02.945Z,987.54
2023-07-26T00:48:02.863Z,987.55
2023-07-26T00:49:02.812Z,987.53
2023-07-26T00:50:02.804Z,987.54
2023-07-26T00:51:02.786Z,987.51
2023-07-26T00:52:02.804Z,987.49
2023-07-26T00:53:02.778Z,987.55
2023-07-26T00:54:02.762Z,987.51
2023-07-26T00:55:02.846Z,987.50
2023-07-26T00:56:02.801Z,987.53
2023-07-26T00:57:02.763Z,987.61
2023-07-26T00:58:02.739Z,987.53
2023-07-26T00:59:04.574Z,987.56
2023-07-26T01:00:02.721Z,987.61
2023-07-26T01:01:02.807Z,987.56
2023-07-26T01:02:02.704Z,987.61
2023-07-26T01:03:02.715Z,987.65
2023-07-26T01:04:02.680Z,987.61
2023-07-26T01:05:02.675Z,987.68
2023-07-26T01:06:02.696Z,987.61
2023-07-26T01:07:02.655Z,987.67
2023-07-26T01:08:02.645Z,987.67
2023-07-26T01:09:02.649Z,987.64
2023-07-26T01:10:02.647Z,987.66
2023-07-26T01:11:02.653Z,987.64
2023-07-26T01:12:02.623Z,987.63
2023-07-26T01:13:02.611Z,987.66
2023-07-26T01:14:02.614Z,987.69
2023-07-26T01:15:02.629Z,987.70
2023-07-26T01:16:02.611Z,987.73
2023-07-26T01:17:02.581Z,987.70
2023-07-26T01:18:02.615Z,987.69
2023-07-26T01:19:02.597Z,987.68
2023-07-26T01:20:02.584Z,987.75
2023-07-26T01:21:02.563Z,987.70
2023-07-26T01:22:03.543Z,987.77
2023-07-26T01:23:02.537Z,987.80
2023-07-26T01:24:02.528Z,987.81
2023-07-26T01:25:02.618Z,987.83
2023-07-26T01:26:02.508Z,987.78
2023-07-26T01:27:02.493Z,987.78
2023-07-26T01:28:02.505Z,987.79
2023-07-26T01:29:02.507Z,987.84
2023-07-26T01:30:02.523Z,987.75
2023-07-26T01:31:02.537Z,987.82
2023-07-26T01:32:02.462Z,987.82
2023-07-26T01:33:02.479Z,987.77
2023-07-26T01:34:02.455Z,987.78
2023-07-26T01:35:02.476Z,987.80
2023-07-26T01:36:02.429Z,987.80
2023-07-26T01:37:02.431Z,987.82
2023-07-26T01:38:02.408Z,987.80
2023-07-26T01:39:02.424Z,987.76
2023-07-26T01:40:02.415Z,987.76
2023-07-26T01:41:02.384Z,987.75
2023-07-26T01:42:02.378Z,987.76
2023-07-26T01:43:02.458Z,987.80
2023-07-26T01:44:02.397Z,987.93
2023-07-26T01:45:02.341Z,987.85
2023-07-26T01:46:02.399Z,987.88
2023-07-26T01:47:02.340Z,987.87
2023-07-26T01:48:02.396Z,987.88
2023-07-26T01:49:02.341Z,987.88
2023-07-26T01:50:02.314Z,987.91
2023-07-26T01:51:02.302Z,987.97
2023-07-26T01:52:02.310Z,987.92
2023-07-26T01:53:02.291Z,988.01
2023-07-26T01:54:02.329Z,988.04
2023-07-26T01:55:02.287Z,987.98
2023-07-26T01:56:02.268Z,987.96
2023-07-26T01:57:02.269Z,987.99
2023-07-26T01:58:02.248Z,988.01
2023-07-26T01:59:03.284Z,988.06
2023-07-26T02:00:02.239Z,987.97
2023-07-26T02:01:02.231Z,988.05
2023-07-26T02:02:02.291Z,988.00
2023-07-26T02:03:02.323Z,988.01
2023-07-26T02:04:02.278Z,988.02
2023-07-26T02:05:02.201Z,988.01
2023-07-26T02:06:02.190Z,988.07
2023-07-26T02:07:02.195Z,988.04
2023-07-26T02:08:02.197Z,988.00
2023-07-26T02:09:02.175Z,988.02
2023-07-26T02:10:02.181Z,988.04
2023-07-26T02:11:02.173Z,988.10
2023-07-26T02:12:02.150Z,988.12
2023-07-26T02:13:02.166Z,988.11
2023-07-26T02:14:02.122Z,988.13
2023-07-26T02:15:02.120Z,988.17
2023-07-26T02:16:02.132Z,988.17
2023-07-26T02:17:02.106Z,988.16
2023-07-26T02:18:02.166Z,988.17
2023-07-26T02:19:02.091Z,988.10
2023-07-26T02:20:02.092Z,988.10
2023-07-26T02:21:02.090Z,988.11
2023-07-26T02:22:02.066Z,988.23
2023-07-26T02:23:02.088Z,988.21
2023-07-26T02:24:02.055Z,988.20
2023-07-26T02:25:02.045Z,988.21
2023-07-26T02:26:02.036Z,988.17
2023-07-26T02:27:02.051Z,988.25
2023-07-26T02:28:02.049Z,988.22
2023-07-26T02:29:02.014Z,988.17
2023-07-26T02:30:02.000Z,988.19
2023-07-26T02:31:02.021Z,988.20
2023-07-26T02:32:02.072Z,988.19
2023-07-26T02:33:02.024Z,988.24
2023-07-26T02:34:01.976Z,988.23
2023-07-26T02:35:01.963Z,988.16
2023-07-26T02:36:01.958Z,988.24
2023-07-26T02:37:01.978Z,988.25
2023-07-26T02:38:01.936Z,988.24
2023-07-26T02:39:01.927Z,988.23
2023-07-26T02:40:01.917Z,988.26
2023-07-26T02:41:01.904Z,988.25
2023-07-26T02:42:02.927Z,988.22
2023-07-26T02:43:01.896Z,988.24
2023-07-26T02:44:01.895Z,988.28
2023-07-26T02:45:01.894Z,988.25
2023-07-26T02:46:01.947Z,988.28
2023-07-26T02:47:01.930Z,988.32
2023-07-26T02:48:01.878Z,988.29
2023-07-26T02:49:01.845Z,988.29
2023-07-26T02:50:01.853Z,988.29
2023-07-26T02:51:01.846Z,988.30
2023-07-26T02:52:01.866Z,988.35
2023-07-26T02:53:01.817Z,988.31
2023-07-26T02:54:01.830Z,988.31
2023-07-26T02:55:01.876Z,988.35
2023-07-26T02:56:01.803Z,988.30
2023-07-26T02:57:01.811Z,988.36
2023-07-26T02:58:01.777Z,988.35
2023-07-26T02:59:01.771Z,988.33
2023-07-26T03:00:01.765Z,988.31
2023-07-26T03:01:01.851Z,988.35
2023-07-26T03:02:01.770Z,988.34
2023-07-26T03:03:01.875Z,988.38
2023-07-26T03:04:01.736Z,988.33
2023-07-26T03:05:01.722Z,988.38
2023-07-26T03:06:01.734Z,988.39
2023-07-26T03:07:01.708Z,988.38
2023-07-26T03:08:01.694Z,988.43
2023-07-26T03:09:01.690Z,988.41
2023-07-26T03:10:01.679Z,988.45
2023-07-26T03:11:01.707Z,988.46
2023-07-26T03:12:01.661Z,988.42
2023-07-26T03:13:01.666Z,988.43
2023-07-26T03:14:01.646Z,988.44
2023-07-26T03:15:01.661Z,988.47
2023-07-26T03:16:01.672Z,988.43
2023-07-26T03:17:15.845Z,988.48
2023-07-26T03:18:03.667Z,988.42
2023-07-26T03:19:01.610Z,988.42
2023-07-26T03:20:01.602Z,988.49
2023-07-26T03:21:01.627Z,988.42
2023-07-26T03:22:01.589Z,988.49
2023-07-26T03:23:01.580Z,988.47
2023-07-26T03:24:01.567Z,988.46
2023-07-26T03:25:01.617Z,988.47
2023-07-26T03:26:01.592Z,988.42
2023-07-26T03:27:01.543Z,988.52
2023-07-26T03:28:01.521Z,988.51
2023-07-26T03:29:02.538Z,988.45
2023-07-26T03:30:01.535Z,988.50
2023-07-26T03:31:02.522Z,988.39
2023-07-26T03:32:01.502Z,988.53
2023-07-26T03:33:01.547Z,988.54
2023-07-26T03:34:01.521Z,988.51
2023-07-26T03:35:01.508Z,988.53
2023-07-26T03:36:01.479Z,988.55
2023-07-26T03:37:01.463Z,988.58
2023-07-26T03:38:01.457Z,988.58
2023-07-26T03:39:01.455Z,988.61
2023-07-26T03:40:01.466Z,988.61
2023-07-26T03:41:01.429Z,988.59
2023-07-26T03:42:01.421Z,988.47
2023-07-26T03:43:01.417Z,988.49
2023-07-26T03:44:01.424Z,988.44
2023-07-26T03:45:01.445Z,988.48
2023-07-26T03:46:01.443Z,988.49
2023-07-26T03:47:01.385Z,988.49
2023-07-26T03:48:01.425Z,988.47
2023-07-26T03:49:01.389Z,988.50
2023-07-26T03:50:01.390Z,988.50
2023-07-26T03:51:01.354Z,988.58
2023-07-26T03:52:01.348Z,988.51
2023-07-26T03:53:01.348Z,988.52
2023-07-26T03:54:01.358Z,988.49
2023-07-26T03:55:01.328Z,988.55
2023-07-26T03:56:01.322Z,988.57
2023-07-26T03:57:01.321Z,988.55
2023-07-26T03:58:01.317Z,988.60
2023-07-26T03:59:01.318Z,988.52
2023-07-26T04:00:01.290Z,988.44
2023-07-26T04:01:01.318Z,988.55
2023-07-26T04:02:01.293Z,988.50
2023-07-26T04:03:01.406Z,988.58
2023-07-26T04:04:01.440Z,988.55
2023-07-26T04:05:02.252Z,988.54
2023-07-26T04:06:01.244Z,988.52
2023-07-26T04:07:01.270Z,988.54
2023-07-26T04:08:01.258Z,988.61
2023-07-26T04:09:01.246Z,988.67
2023-07-26T04:10:01.228Z,988.69
2023-07-26T04:11:01.210Z,988.61
2023-07-26T04:12:01.202Z,988.61
2023-07-26T04:13:01.229Z,988.59
2023-07-26T04:14:01.187Z,988.64
2023-07-26T04:15:01.162Z,988.65
2023-07-26T04:16:01.217Z,988.66
2023-07-26T04:17:01.157Z,988.66
2023-07-26T04:18:01.245Z,988.68
2023-07-26T04:19:01.140Z,988.70
2023-07-26T04:20:01.139Z,988.74
2023-07-26T04:21:01.125Z,988.70
2023-07-26T04:22:01.115Z,988.70
2023-07-26T04:23:01.135Z,988.66
2023-07-26T04:24:01.102Z,988.74
2023-07-26T04:25:01.126Z,988.73
2023-07-26T04:26:01.096Z,988.75
2023-07-26T04:27:01.086Z,988.73
2023-07-26T04:28:01.103Z,988.72
2023-07-26T04:29:01.064Z,988.73
2023-07-26T04:30:01.057Z,988.76
2023-07-26T04:31:01.071Z,988.78
2023-07-26T04:32:01.040Z,988.77
2023-07-26T04:33:01.081Z,988.77
2023-07-26T04:34:01.030Z,988.71
2023-07-26T04:35:01.018Z,988.76
2023-07-26T04:36:01.006Z,988.77
2023-07-26T04:37:01.000Z,988.80
2023-07-26T04:38:01.052Z,988.83
2023-07-26T04:39:00.984Z,988.81
2023-07-26T04:40:00.976Z,988.79
2023-07-26T04:41:00.976Z,988.81
2023-07-26T04:42:00.988Z,988.84
2023-07-26T04:43:00.972Z,988.84
2023-07-26T04:44:00.943Z,988.88
2023-07-26T04:45:00.942Z,988.81
2023-07-26T04:46:00.925Z,988.84
2023-07-26T04:47:00.959Z,988.91
2023-07-26T04:48:00.940Z,988.85
2023-07-26T04:49:00.911Z,988.91
2023-07-26T04:50:00.903Z,988.87
2023-07-26T04:51:00.887Z,988.90
2023-07-26T04:52:00.920Z,988.89
2023-07-26T04:53:00.865Z,988.97
2023-07-26T04:54:02.940Z,988.92
2023-07-26T04:55:00.868Z,988.97
2023-07-26T04:56:00.870Z,988.86
2023-07-26T04:57:00.868Z,988.96
2023-07-26T04:58:00.834Z,988.87
2023-07-26T04:59:00.826Z,988.91
2023-07-26T05:00:00.820Z,988.93
2023-07-26T05:01:00.871Z,988.91
2023-07-26T05:02:00.818Z,988.87
2023-07-26T05:03:00.834Z,988.97
2023-07-26T05:04:00.840Z,988.90
2023-07-26T05:05:00.784Z,988.99
2023-07-26T05:06:00.795Z,988.99
2023-07-26T05:07:00.762Z,989.02
2023-07-26T05:08:00.752Z,989.00
2023-07-26T05:09:00.761Z,989.01
2023-07-26T05:10:00.747Z,989.00
2023-07-26T05:11:00.750Z,989.05
2023-07-26T05:12:00.719Z,989.04
2023-07-26T05:13:00.756Z,989.08
2023-07-26T05:14:00.711Z,989.04
2023-07-26T05:15:00.715Z,989.08
2023-07-26T05:16:00.757Z,988.99
2023-07-26T05:17:00.751Z,989.06
2023-07-26T05:18:00.738Z,989.03
2023-07-26T05:19:00.665Z,989.03
2023-07-26T05:20:00.712Z,989.03
2023-07-26T05:21:00.679Z,989.04
2023-07-26T05:22:00.649Z,989.12
2023-07-26T05:23:00.645Z,989.16
2023-07-26T05:24:00.639Z,989.10
2023-07-26T05:25:00.716Z,989.02
2023-07-26T05:26:00.627Z,989.09
2023-07-26T05:27:00.609Z,989.13
2023-07-26T05:28:00.596Z,989.10
2023-07-26T05:29:00.590Z,989.06
2023-07-26T05:30:00.639Z,989.06
2023-07-26T05:31:00.607Z,989.09
2023-07-26T05:32:00.593Z,989.08
2023-07-26T05:33:00.626Z,989.13
2023-07-26T05:34:00.588Z,989.07
2023-07-26T05:35:00.567Z,989.15
2023-07-26T05:36:00.532Z,989.15
2023-07-26T05:37:00.533Z,989.11
2023-07-26T05:38:00.532Z,989.15
2023-07-26T05:39:00.545Z,989.11
2023-07-26T05:40:00.517Z,989.16
2023-07-26T05:41:00.497Z,989.08
2023-07-26T05:42:00.492Z,989.16
2023-07-26T05:43:00.828Z,989.16
2023-07-26T05:44:01.497Z,989.17
2023-07-26T05:45:00.464Z,989.20
2023-07-26T05:46:00.488Z,989.19
2023-07-26T05:47:00.444Z,989.12
2023-07-26T05:48:00.523Z,989.11
2023-07-26T05:49:00.453Z,989.18
2023-07-26T05:50:00.422Z,989.15
2023-07-26T05:51:00.418Z,989.13
2023-07-26T05:52:00.414Z,989.16
2023-07-26T05:53:00.446Z,989.15
2023-07-26T05:54:00.390Z,989.16
2023-07-26T05:55:00.390Z,989.16
2023-07-26T05:56:00.375Z,989.22
2023-07-26T05:57:00.368Z,989.17
2023-07-26T05:58:00.386Z,989.18
2023-07-26T05:59:00.355Z,989.22
2023-07-26T06:00:00.369Z,989.21
2023-07-26T06:01:00.337Z,989.24
2023-07-26T06:02:00.366Z,989.19
2023-07-26T06:03:00.403Z,989.20
2023-07-26T06:04:00.313Z,989.27
2023-07-26T06:05:00.302Z,989.25
2023-07-26T06:06:00.326Z,989.34
2023-07-26T06:07:00.312Z,989.27
2023-07-26T06:08:00.286Z,989.31
2023-07-26T06:09:00.273Z,989.28
2023-07-26T06:10:00.265Z,989.29
2023-07-26T06:11:00.255Z,989.36
2023-07-26T06:12:00.453Z,989.27
2023-07-26T06:13:00.250Z,989.35
2023-07-26T06:14:00.338Z,989.35
2023-07-26T06:15:00.232Z,989.35
2023-07-26T06:16:00.225Z,989.38
2023-07-26T06:17:00.237Z,989.38
2023-07-26T06:18:00.222Z,989.38
2023-07-26T06:19:00.194Z,989.41
2023-07-26T06:20:00.173Z,989.45
2023-07-26T06:21:00.171Z,989.46
2023-07-26T06:22:00.197Z,989.39
2023-07-26T06:23:00.169Z,989.42
2023-07-26T06:24:00.153Z,989.42
2023-07-26T06:25:00.203Z,989.50
2023-07-26T06:26:00.144Z,989.51
2023-07-26T06:27:00.185Z,989.49
2023-07-26T06:28:00.134Z,989.53
2023-07-26T06:29:00.127Z,989.50
2023-07-26T06:30:00.127Z,989.48
2023-07-26T06:31:00.168Z,989.47
2023-07-26T06:32:00.142Z,989.49
2023-07-26T06:33:00.103Z,989.48
2023-07-26T06:34:00.126Z,989.52
2023-07-26T06:35:00.068Z,989.47
2023-07-26T06:36:00.103Z,989.47
2023-07-26T06:37:00.080Z,989.50
2023-07-26T06:38:00.039Z,989.45
2023-07-26T06:39:00.033Z,989.47
2023-07-26T06:40:00.039Z,989.49
2023-07-26T06:41:00.067Z,989.50
2023-07-26T06:42:00.021Z,989.48
2023-07-26T06:43:00.008Z,989.50
2023-07-26T06:44:00.000Z,989.51
2023-07-26T06:45:00.001Z,989.49
2023-07-26T06:46:00.064Z,989.47
2023-07-26T06:47:00.025Z,989.53
2023-07-26T06:48:00.032Z,989.50
2023-07-26T06:48:59.967Z,989.45
2023-07-26T06:49:59.956Z,989.48
2023-07-26T06:50:59.970Z,989.49
2023-07-26T06:51:59.945Z,989.49
2023-07-26T06:52:59.939Z,989.53
2023-07-26T06:53:59.932Z,989.56
2023-07-26T06:54:59.939Z,989.53
2023-07-26T06:55:59.940Z,989.54
2023-07-26T06:56:59.917Z,989.54
2023-07-26T06:57:59.898Z,989.50
2023-07-26T06:58:59.893Z,989.58
2023-07-26T06:59:59.914Z,989.58
2023-07-26T07:00:59.878Z,989.52
2023-07-26T07:01:59.875Z,989.52
2023-07-26T07:02:59.867Z,989.47
2023-07-26T07:04:12.497Z,989.50
2023-07-26T07:05:01.928Z,989.48
2023-07-26T07:05:59.840Z,989.58
2023-07-26T07:06:59.850Z,989.46
2023-07-26T07:07:59.821Z,989.47
2023-07-26T07:08:59.832Z,989.50
2023-07-26T07:09:59.833Z,989.52
2023-07-26T07:10:59.803Z,989.51
2023-07-26T07:11:59.853Z,989.50
2023-07-26T07:12:59.788Z,989.52
2023-07-26T07:13:59.798Z,989.48
2023-07-26T07:14:59.792Z,989.46
2023-07-26T07:15:59.791Z,989.49
2023-07-26T07:16:59.751Z,989.54
2023-07-26T07:18:14.348Z,989.47
2023-07-26T07:19:01.766Z,989.48
2023-07-26T07:19:59.734Z,989.55
2023-07-26T07:20:59.774Z,989.52
2023-07-26T07:21:59.798Z,989.58
2023-07-26T07:22:59.725Z,989.58
2023-07-26T07:23:59.720Z,989.58
2023-07-26T07:24:59.744Z,989.59
2023-07-26T07:25:59.688Z,989.60
2023-07-26T07:26:59.679Z,989.50
2023-07-26T07:27:59.662Z,989.56
2023-07-26T07:28:59.687Z,989.58
2023-07-26T07:29:59.648Z,989.59
2023-07-26T07:30:59.642Z,989.55
2023-07-26T07:32:12.032Z,989.54
2023-07-26T07:33:01.792Z,989.59
2023-07-26T07:33:59.638Z,989.56
2023-07-26T07:34:59.611Z,989.57
2023-07-26T07:35:59.611Z,989.53
2023-07-26T07:36:59.604Z,989.60
2023-07-26T07:37:59.616Z,989.55
2023-07-26T07:38:59.608Z,989.56
2023-07-26T07:39:59.600Z,989.67
2023-07-26T07:40:59.561Z,989.68
2023-07-26T07:41:59.555Z,989.60
2023-07-26T07:42:59.574Z,989.67
2023-07-26T07:43:59.539Z,989.59
2023-07-26T07:44:59.540Z,989.63
2023-07-26T07:45:59.589Z,989.55
2023-07-26T07:47:03.234Z,989.64
2023-07-26T07:48:01.579Z,989.67
2023-07-26T07:48:59.511Z,989.68
2023-07-26T07:49:59.503Z,989.68
2023-07-26T07:50:59.515Z,989.68
2023-07-26T07:51:59.499Z,989.70
2023-07-26T07:52:59.649Z,989.69
2023-07-26T07:53:59.491Z,989.67
2023-07-26T07:54:59.468Z,989.63
2023-07-26T07:55:59.451Z,989.74
2023-07-26T07:56:59.481Z,989.70
2023-07-26T07:57:59.528Z,989.77
2023-07-26T07:58:59.440Z,989.62
2023-07-26T07:59:59.424Z,989.68
2023-07-26T08:00:59.482Z,989.73
2023-07-26T08:02:00.484Z,989.71
2023-07-26T08:02:59.435Z,989.71
2023-07-26T08:03:59.445Z,989.73
2023-07-26T08:04:59.380Z,989.67
2023-07-26T08:05:59.391Z,989.68
2023-07-26T08:06:59.747Z,989.61
2023-07-26T08:08:00.399Z,989.64
2023-07-26T08:08:59.360Z,989.70
2023-07-26T08:09:59.348Z,989.67
2023-07-26T08:10:59.340Z,989.72
2023-07-26T08:11:59.345Z,989.68
2023-07-26T08:12:59.339Z,989.63
2023-07-26T08:13:59.314Z,989.64
2023-07-26T08:14:59.304Z,989.66
2023-07-26T08:16:02.122Z,989.68
2023-07-26T08:16:59.377Z,989.67
2023-07-26T08:17:59.293Z,989.67
2023-07-26T08:18:59.281Z,989.66
2023-07-26T08:19:59.264Z,989.68
2023-07-26T08:20:59.266Z,989.60
2023-07-26T08:21:59.281Z,989.66
2023-07-26T08:23:00.314Z,989.66
2023-07-26T08:23:59.247Z,989.63
2023-07-26T08:24:59.291Z,989.61
2023-07-26T08:25:59.242Z,989.59
2023-07-26T08:26:59.257Z,989.59
2023-07-26T08:27:59.222Z,989.61
2023-07-26T08:28:59.206Z,989.59
2023-07-26T08:29:59.189Z,989.56
2023-07-26T08:30:59.213Z,989.60
2023-07-26T08:31:59.220Z,989.56
2023-07-26T08:32:59.278Z,989.55
2023-07-26T08:33:59.161Z,989.58
2023-07-26T08:34:59.154Z,989.57
2023-07-26T08:35:59.166Z,989.56
2023-07-26T08:36:59.142Z,989.53
2023-07-26T08:37:59.136Z,989.50
2023-07-26T08:38:59.136Z,989.50
2023-07-26T08:39:59.150Z,989.49
2023-07-26T08:40:59.144Z,989.48
2023-07-26T08:41:59.101Z,989.43
2023-07-26T08:42:59.097Z,989.45
2023-07-26T08:43:59.076Z,989.46
2023-07-26T08:44:59.108Z,989.37
2023-07-26T08:45:59.177Z,989.51
2023-07-26T08:46:59.059Z,989.52
2023-07-26T08:47:59.085Z,989.43
2023-07-26T08:48:59.044Z,989.43
2023-07-26T08:49:59.071Z,989.42
2023-07-26T08:50:59.064Z,989.50
2023-07-26T08:51:59.061Z,989.45
2023-07-26T08:52:59.011Z,989.47
2023-07-26T08:53:59.030Z,989.42
2023-07-26T08:54:59.135Z,989.45
2023-07-26T08:55:59.000Z,989.44
2023-07-26T08:56:59.029Z,989.53
2023-07-26T08:57:58.986Z,989.45
2023-07-26T08:58:58.990Z,989.43
2023-07-26T08:59:58.958Z,989.38
2023-07-26T09:00:59.056Z,989.41
2023-07-26T09:02:03.693Z,989.43
2023-07-26T09:03:01.040Z,989.42
2023-07-26T09:04:00.176Z,989.37
2023-07-26T09:04:59.937Z,989.37
2023-07-26T09:05:58.931Z,989.36
2023-07-26T09:06:58.925Z,989.27
2023-07-26T09:07:58.900Z,989.26
2023-07-26T09:08:58.928Z,989.21
2023-07-26T09:09:58.893Z,989.21
2023-07-26T09:10:58.890Z,989.21
2023-07-26T09:11:58.884Z,989.15
2023-07-26T09:12:58.882Z,989.13
2023-07-26T09:13:58.890Z,989.22
2023-07-26T09:14:58.852Z,989.18
2023-07-26T09:15:58.867Z,989.20
2023-07-26T09:16:58.850Z,989.24
2023-07-26T09:17:58.888Z,989.31
2023-07-26T09:18:58.815Z,989.22
2023-07-26T09:19:58.820Z,989.30
2023-07-26T09:20:58.810Z,989.34
2023-07-26T09:21:58.788Z,989.22
2023-07-26T09:22:58.810Z,989.32
2023-07-26T09:23:58.775Z,989.32
2023-07-26T09:24:58.801Z,989.41
2023-07-26T09:25:58.765Z,989.39
2023-07-26T09:26:58.796Z,989.39
2023-07-26T09:27:58.778Z,989.34
2023-07-26T09:28:58.746Z,989.38
2023-07-26T09:29:58.735Z,989.33
2023-07-26T09:30:58.763Z,989.35
2023-07-26T09:31:58.749Z,989.33
2023-07-26T09:32:58.731Z,989.26
2023-07-26T09:33:58.700Z,989.31
2023-07-26T09:34:58.742Z,989.29
2023-07-26T09:35:58.702Z,989.24
2023-07-26T09:36:58.707Z,989.29
2023-07-26T09:37:58.668Z,989.30
2023-07-26T09:38:58.680Z,989.12
2023-07-26T09:39:58.656Z,989.26
2023-07-26T09:40:58.657Z,989.27
2023-07-26T09:41:58.665Z,989.25
2023-07-26T09:42:58.650Z,989.19
2023-07-26T09:44:00.810Z,989.24
2023-07-26T09:45:00.035Z,989.23
2023-07-26T09:45:59.636Z,989.20
2023-07-26T09:46:58.691Z,989.14
2023-07-26T09:48:59.602Z,989.18
2023-07-26T09:50:15.632Z,989.24
2023-07-26T09:51:20.253Z,989.28
2023-07-26T09:53:00.140Z,989.14
2023-07-26T09:53:58.571Z,989.20
2023-07-26T09:54:58.544Z,989.13
2023-07-26T09:56:01.368Z,989.14
2023-07-26T09:56:59.533Z,989.06
2023-07-26T09:57:58.518Z,989.14
2023-07-26T09:58:58.531Z,989.09
2023-07-26T10:00:02.709Z,989.05
2023-07-26T10:00:58.590Z,989.11
2023-07-26T10:01:58.488Z,989.17
2023-07-26T10:02:58.532Z,989.16
2023-07-26T10:03:58.466Z,989.12
2023-07-26T10:04:58.488Z,989.11
2023-07-26T10:05:58.476Z,989.14
2023-07-26T10:06:58.470Z,989.04
2023-07-26T10:08:01.054Z,989.11
2023-07-26T10:08:59.424Z,989.08
2023-07-26T10:09:58.459Z,989.07
2023-07-26T10:10:58.420Z,989.04
2023-07-26T10:11:58.401Z,989.05
2023-07-26T10:12:58.396Z,989.11
2023-07-26T10:13:58.396Z,989.09
2023-07-26T10:14:58.404Z,989.08
2023-07-26T10:15:58.371Z,989.01
2023-07-26T10:16:58.407Z,989.02
2023-07-26T10:17:58.413Z,989.00
2023-07-26T10:18:58.344Z,989.05
2023-07-26T10:19:58.393Z,988.97
2023-07-26T10:20:58.339Z,988.97
2023-07-26T10:21:58.333Z,988.93
2023-07-26T10:22:58.317Z,988.97
2023-07-26T10:23:58.510Z,989.01
2023-07-26T10:24:59.366Z,988.94
2023-07-26T10:25:59.298Z,988.92
2023-07-26T10:26:58.301Z,988.93
2023-07-26T10:27:58.287Z,988.91
2023-07-26T10:28:58.919Z,988.95
2023-07-26T10:29:58.259Z,988.82
2023-07-26T10:30:58.258Z,988.84
2023-07-26T10:31:58.253Z,988.81
2023-07-26T10:32:58.282Z,988.76
2023-07-26T10:33:58.265Z,988.83
2023-07-26T10:34:58.234Z,988.77
2023-07-26T10:35:58.225Z,988.78
2023-07-26T10:36:58.211Z,988.78
2023-07-26T10:37:58.236Z,988.82
2023-07-26T10:38:58.225Z,988.78
2023-07-26T10:39:58.183Z,988.75
2023-07-26T10:40:58.177Z,988.79
2023-07-26T10:41:58.169Z,988.75
2023-07-26T10:42:58.188Z,988.70
2023-07-26T10:43:58.151Z,988.70
2023-07-26T10:44:58.172Z,988.62
2023-07-26T10:45:58.167Z,988.71
2023-07-26T10:46:58.136Z,988.64
2023-07-26T10:47:58.194Z,988.71
2023-07-26T10:48:58.131Z,988.74
2023-07-26T10:49:58.114Z,988.71
2023-07-26T10:50:58.106Z,988.71
2023-07-26T10:51:58.138Z,988.78
2023-07-26T10:52:58.111Z,988.75
2023-07-26T10:53:58.075Z,988.72
2023-07-26T10:54:58.069Z,988.77
2023-07-26T10:55:58.065Z,988.80
2023-07-26T10:56:58.081Z,988.77
2023-07-26T10:57:58.068Z,988.70
2023-07-26T10:58:58.076Z,988.69
2023-07-26T10:59:58.032Z,988.72
2023-07-26T11:00:58.029Z,988.72
2023-07-26T11:01:58.085Z,988.71
2023-07-26T11:02:58.064Z,988.70
2023-07-26T11:03:58.012Z,988.71
2023-07-26T11:04:59.083Z,988.69
2023-07-26T11:05:58.989Z,988.71
2023-07-26T11:06:58.013Z,988.64
2023-07-26T11:07:57.981Z,988.66
2023-07-26T11:08:57.963Z,988.56
2023-07-26T11:09:57.964Z,988.69
2023-07-26T11:10:57.942Z,988.55
2023-07-26T11:11:57.970Z,988.57
2023-07-26T11:12:57.931Z,988.59
2023-07-26T11:13:57.922Z,988.59
2023-07-26T11:15:47.942Z,988.58
2023-07-26T11:16:17.216Z,988.58
2023-07-26T11:16:59.151Z,988.60
2023-07-26T11:17:58.907Z,988.59
2023-07-26T11:18:57.895Z,988.61
2023-07-26T11:19:57.878Z,988.54
2023-07-26T11:20:57.890Z,988.47
2023-07-26T11:21:57.884Z,988.47
2023-07-26T11:22:57.849Z,988.43
2023-07-26T11:23:57.845Z,988.45
2023-07-26T11:24:57.857Z,988.43
2023-07-26T11:25:57.855Z,988.41
2023-07-26T11:26:57.841Z,988.40
2023-07-26T11:27:57.809Z,988.41
2023-07-26T11:28:57.804Z,988.45
2023-07-26T11:29:57.793Z,988.46
2023-07-26T11:30:57.822Z,988.52
2023-07-26T11:31:57.846Z,988.47
2023-07-26T11:32:57.803Z,988.39
2023-07-26T11:33:57.765Z,988.39
2023-07-26T11:34:57.760Z,988.40
2023-07-26T11:35:57.789Z,988.46
2023-07-26T11:36:57.745Z,988.54
2023-07-26T11:37:57.732Z,988.54
2023-07-26T11:38:57.739Z,988.58
2023-07-26T11:39:57.721Z,988.53
2023-07-26T11:40:57.739Z,988.55
2023-07-26T11:41:57.713Z,988.52
2023-07-26T11:42:57.700Z,988.47
2023-07-26T11:43:57.689Z,988.46
2023-07-26T11:44:57.705Z,988.47
2023-07-26T11:45:57.924Z,988.47
2023-07-26T11:46:57.772Z,988.47
2023-07-26T11:47:57.690Z,988.50
2023-07-26T11:48:57.654Z,988.45
2023-07-26T11:49:57.662Z,988.46
2023-07-26T11:50:57.633Z,988.53
2023-07-26T11:51:58.385Z,988.47
2023-07-26T11:52:58.625Z,988.42
2023-07-26T11:53:57.606Z,988.43
2023-07-26T11:54:57.627Z,988.45
2023-07-26T11:55:57.591Z,988.41
2023-07-26T11:56:57.601Z,988.49
2023-07-26T11:57:57.584Z,988.44
2023-07-26T11:58:57.602Z,988.47
2023-07-26T11:59:57.592Z,988.47
2023-07-26T12:00:57.562Z,988.48
2023-07-26T12:01:57.600Z,988.48
2023-07-26T12:02:57.567Z,988.58
2023-07-26T12:03:57.621Z,988.56
2023-07-26T12:04:57.545Z,988.63
2023-07-26T12:05:58.893Z,988.73
2023-07-26T12:06:58.517Z,988.79
2023-07-26T12:07:57.510Z,988.84
2023-07-26T12:08:57.518Z,988.75
2023-07-26T12:09:57.489Z,988.80
2023-07-26T12:10:57.480Z,988.72
2023-07-26T12:11:59.544Z,988.80
2023-07-26T12:12:57.528Z,988.78
2023-07-26T12:13:57.491Z,988.77
2023-07-26T12:14:57.457Z,988.81
2023-07-26T12:15:57.458Z,988.85
2023-07-26T12:16:57.482Z,988.81
2023-07-26T12:17:57.485Z,988.77
2023-07-26T12:18:57.450Z,988.72
2023-07-26T12:19:57.448Z,988.79
2023-07-26T12:21:02.228Z,988.85
2023-07-26T12:21:59.397Z,988.81
2023-07-26T12:22:57.413Z,988.95
2023-07-26T12:23:58.750Z,988.99
2023-07-26T12:24:57.449Z,988.92
2023-07-26T12:25:57.453Z,988.89
2023-07-26T12:26:57.355Z,988.81
2023-07-26T12:27:57.369Z,988.81
2023-07-26T12:28:57.336Z,988.78
2023-07-26T12:29:57.324Z,988.78